Time;durP1;ratioP1;P1;durP2;ratioP2;P2;SDS_P1;SDS_P2;PMS_P1;PMS_P2;Temp;Humidity;BMP_temperature;BMP_pressure;BME280_temperature;BME280_humidity;BME280_pressure;Samples;Min_cycle;Max_cycle;Signal;HPM_P1;HPM_P2
2023/08/08 00:00:54;;;;;;;0.30;0.08;;;15.50;99.90;;;;;;5242500;24;20103;-78
2023/08/08 00:03:22;;;;;;;1.10;0.20;;;15.50;99.90;;;;;;4972931;23;20073;-79
2023/08/08 00:05:50;;;;;;;0.30;0.00;;;15.40;99.90;;;;;;4824686;29;20065;-79
2023/08/08 00:08:17;;;;;;;0.90;0.00;;;15.30;99.90;;;;;;4840232;23;20067;-79
2023/08/08 00:10:46;;;;;;;1.30;0.00;;;15.40;99.90;;;;;;4865969;29;20048;-79
2023/08/08 00:13:20;;;;;;;0.22;0.00;;;15.30;99.90;;;;;;4864349;29;20052;-79
2023/08/08 00:15:48;;;;;;;0.20;0.10;;;15.30;99.90;;;;;;4863781;29;20045;-79
2023/08/08 00:18:17;;;;;;;0.63;0.00;;;15.30;99.90;;;;;;4861074;29;20049;-79
2023/08/08 00:20:45;;;;;;;0.63;0.28;;;15.20;99.90;;;;;;4859130;29;20053;-78
2023/08/08 00:23:12;;;;;;;0.10;0.00;;;15.20;99.90;;;;;;4871948;29;20045;-77
2023/08/08 00:25:39;;;;;;;0.73;0.00;;;15.30;99.90;;;;;;4872525;29;20516;-78
2023/08/08 00:28:07;;;;;;;0.10;0.00;;;15.20;99.90;;;;;;4857328;29;20057;-78
2023/08/08 00:30:43;;;;;;;1.17;0.00;;;15.20;99.90;;;;;;4862042;29;22964;-79
2023/08/08 00:33:10;;;;;;;1.33;0.10;;;15.20;99.90;;;;;;4875215;29;20128;-79
2023/08/08 00:35:38;;;;;;;0.57;0.00;;;15.30;99.90;;;;;;4858192;29;20486;-79
2023/08/08 00:38:05;;;;;;;0.35;0.10;;;15.20;99.90;;;;;;4856656;29;20049;-79
2023/08/08 00:40:33;;;;;;;1.27;0.10;;;15.20;99.90;;;;;;4858935;29;20041;-79
2023/08/08 00:43:04;;;;;;;0.22;0.08;;;15.80;99.90;;;;;;4858684;29;20235;-78
2023/08/08 00:45:34;;;;;;;0.30;0.08;;;15.30;99.90;;;;;;4831932;29;20049;-78
2023/08/08 00:48:01;;;;;;;1.33;0.10;;;15.30;99.90;;;;;;4860887;29;20053;-78
2023/08/08 00:50:29;;;;;;;0.40;0.08;;;15.20;99.90;;;;;;4862223;29;20045;-77
2023/08/08 00:52:59;;;;;;;0.20;0.00;;;14.80;99.90;;;;;;4858744;29;20796;-78
2023/08/08 00:55:26;;;;;;;2.25;0.08;;;15.20;99.90;;;;;;4902740;23;20063;-78
2023/08/08 00:57:56;;;;;;;0.70;0.00;;;15.20;99.90;;;;;;4827747;29;20062;-78
2023/08/08 01:00:24;;;;;;;0.20;0.10;;;15.10;99.90;;;;;;4839360;29;20064;-79
2023/08/08 01:02:52;;;;;;;0.50;0.10;;;15.20;99.90;;;;;;5053696;23;20046;-78
2023/08/08 01:05:19;;;;;;;0.45;0.00;;;15.20;99.90;;;;;;4825994;29;20039;-79
2023/08/08 01:08:22;;;;;;;0.20;0.10;;;15.20;99.90;;;;;;4793512;29;20088;-79
2023/08/08 01:10:50;;;;;;;0.47;0.10;;;15.10;99.90;;;;;;4788780;29;22836;-79
2023/08/08 01:13:27;;;;;;;0.20;0.10;;;15.10;99.90;;;;;;5262682;23;20084;-78
2023/08/08 01:15:58;;;;;;;3.80;0.20;;;15.10;99.90;;;;;;4848045;24;20058;-79
2023/08/08 01:18:26;;;;;;;0.30;0.10;;;15.10;99.90;;;;;;4827230;29;22957;-79
2023/08/08 01:20:57;;;;;;;0.20;0.08;;;15.10;99.90;;;;;;4846779;29;20042;-78
2023/08/08 01:34:35;;;;;;;0.30;0.10;;;15.10;99.90;;;;;;5552450;23;20024;31
2023/08/08 01:47:18;;;;;;;0.45;0.15;;;15.00;99.90;;;;;;5386928;23;20528;-79
2023/08/08 01:49:53;;;;;;;0.85;0.10;;;15.00;99.90;;;;;;5464967;23;20040;-79
2023/08/08 01:52:22;;;;;;;0.73;0.10;;;15.00;99.90;;;;;;5308608;23;20039;-79
2023/08/08 01:54:50;;;;;;;1.38;0.20;;;15.10;99.90;;;;;;4843937;29;20073;-79
2023/08/08 01:57:17;;;;;;;1.17;0.17;;;15.20;99.90;;;;;;5199824;24;20080;-80
2023/08/08 01:59:46;;;;;;;1.10;0.20;;;15.10;99.90;;;;;;4992589;23;20095;-80
2023/08/08 02:05:41;;;;;;;1.55;0.10;;;15.00;99.90;;;;;;4844215;29;20061;-80
2023/08/08 02:08:09;;;;;;;1.88;0.35;;;15.00;99.90;;;;;;4848144;29;20079;-80
2023/08/08 02:13:21;;;;;;;2.13;0.30;;;15.00;99.90;;;;;;4890685;23;22855;-78
2023/08/08 02:18:22;;;;;;;1.25;0.20;;;15.00;99.90;;;;;;5021428;23;20092;-79
2023/08/08 02:20:49;;;;;;;0.75;0.35;;;14.90;99.90;;;;;;4856479;29;20054;-79
2023/08/08 02:23:17;;;;;;;0.90;0.10;;;14.90;99.90;;;;;;4836596;29;22866;-79
2023/08/08 02:25:44;;;;;;;1.73;0.10;;;14.90;99.90;;;;;;4860266;29;20135;-79
2023/08/08 02:28:11;;;;;;;0.40;0.10;;;14.90;99.90;;;;;;4846779;29;20053;-79
2023/08/08 02:30:39;;;;;;;1.60;0.17;;;14.90;99.90;;;;;;4846629;29;20044;-79
2023/08/08 02:33:07;;;;;;;1.20;0.25;;;14.90;99.90;;;;;;4870358;29;20045;-79
2023/08/08 02:35:37;;;;;;;2.42;0.30;;;14.80;99.90;;;;;;4837695;29;20572;-79
2023/08/08 02:38:04;;;;;;;0.60;0.10;;;14.80;99.90;;;;;;4869484;29;20038;-79
2023/08/08 02:40:33;;;;;;;1.85;0.20;;;14.80;99.90;;;;;;4872234;29;20520;-79
2023/08/08 02:43:00;;;;;;;1.20;0.30;;;14.80;99.90;;;;;;4843278;29;20052;-79
2023/08/08 02:45:28;;;;;;;0.88;0.30;;;14.80;99.90;;;;;;4850855;29;20137;-79
2023/08/08 02:47:55;;;;;;;1.65;0.55;;;14.80;99.90;;;;;;4833831;29;20056;-79
2023/08/08 02:50:23;;;;;;;1.67;0.30;;;14.80;99.90;;;;;;4858057;29;20060;-79
2023/08/08 02:52:51;;;;;;;2.58;0.20;;;14.80;99.90;;;;;;4836744;29;20057;-79
2023/08/08 02:55:22;;;;;;;1.92;0.20;;;14.80;99.90;;;;;;4863864;29;20101;-79
2023/08/08 02:57:51;;;;;;;1.35;0.20;;;14.70;99.90;;;;;;4860230;29;20162;-79
2023/08/08 03:00:19;;;;;;;0.57;0.20;;;14.70;99.90;;;;;;4847621;29;22813;-79
2023/08/08 03:02:50;;;;;;;2.05;0.20;;;14.70;99.90;;;;;;4845238;29;20458;-79
2023/08/08 03:05:17;;;;;;;1.73;0.20;;;14.70;99.90;;;;;;4845397;29;20073;-79
2023/08/08 03:07:44;;;;;;;2.00;0.20;;;14.60;99.90;;;;;;4849941;29;20049;-79
2023/08/08 03:10:13;;;;;;;1.17;0.30;;;14.70;99.90;;;;;;4845381;29;20091;-79
2023/08/08 03:12:42;;;;;;;0.50;0.13;;;14.70;99.90;;;;;;4838446;29;20041;-79
2023/08/08 03:15:10;;;;;;;0.47;0.20;;;14.70;99.90;;;;;;4842296;29;20497;-79
2023/08/08 03:17:39;;;;;;;1.95;0.20;;;14.70;99.90;;;;;;4840532;29;20500;-78
2023/08/08 03:20:09;;;;;;;1.85;0.20;;;14.60;99.90;;;;;;4847613;29;20033;-79
2023/08/08 03:22:37;;;;;;;0.88;0.10;;;14.50;99.90;;;;;;4854598;29;20049;-79
2023/08/08 03:25:07;;;;;;;1.85;0.20;;;14.40;99.90;;;;;;4847345;29;20064;-79
2023/08/08 03:27:38;;;;;;;0.68;0.20;;;14.40;99.90;;;;;;4856478;29;20049;-79
2023/08/08 03:30:15;;;;;;;1.80;0.20;;;14.40;99.90;;;;;;4845567;29;20071;-78
2023/08/08 03:32:43;;;;;;;0.73;0.20;;;14.50;99.90;;;;;;4893977;23;20193;-78
2023/08/08 03:35:11;;;;;;;1.67;0.20;;;14.50;99.90;;;;;;4868901;29;20050;-78
2023/08/08 03:37:55;;;;;;;1.13;0.20;;;14.50;99.90;;;;;;4982076;23;20206;-79
2023/08/08 03:40:23;;;;;;;0.77;0.20;;;13.70;99.90;;;;;;4791647;29;20116;-78
2023/08/08 03:42:51;;;;;;;2.53;0.20;;;14.50;99.90;;;;;;4801539;29;20066;-79
2023/08/08 03:45:18;;;;;;;1.13;0.20;;;14.60;99.90;;;;;;4784967;29;20059;-79
2023/08/08 03:47:45;;;;;;;0.70;0.20;;;14.50;99.90;;;;;;4787524;29;20659;-78
2023/08/08 03:50:13;;;;;;;0.40;0.13;;;14.50;99.90;;;;;;4785979;29;20519;-79
2023/08/08 03:52:41;;;;;;;1.42;0.20;;;14.40;99.90;;;;;;4772568;30;20635;-79
2023/08/08 03:55:13;;;;;;;0.68;0.20;;;14.50;99.90;;;;;;4798250;29;20055;-79
2023/08/08 03:57:40;;;;;;;1.13;0.20;;;14.50;99.90;;;;;;4783550;29;20120;-79
2023/08/08 04:00:08;;;;;;;0.70;0.20;;;14.50;99.90;;;;;;4795385;29;20138;-79
2023/08/08 04:02:41;;;;;;;1.15;0.47;;;14.60;99.90;;;;;;4779357;29;20504;-79
2023/08/08 04:05:09;;;;;;;2.22;0.20;;;14.50;99.90;;;;;;4797169;29;20101;-79
2023/08/08 04:07:36;;;;;;;0.98;0.30;;;14.70;99.90;;;;;;4769456;29;20531;-79
2023/08/08 04:10:04;;;;;;;0.80;0.30;;;14.60;99.90;;;;;;4785361;29;20128;-78
2023/08/08 04:12:32;;;;;;;0.73;0.20;;;14.50;99.90;;;;;;4790429;29;20150;-79
2023/08/08 04:15:00;;;;;;;2.05;0.38;;;14.40;99.90;;;;;;4775079;30;20079;-78
2023/08/08 04:17:30;;;;;;;2.80;0.30;;;14.40;99.90;;;;;;4805249;29;20051;-79
2023/08/08 04:19:59;;;;;;;1.92;0.20;;;14.50;99.90;;;;;;4802793;29;20054;-78
2023/08/08 04:22:27;;;;;;;3.95;0.40;;;14.40;99.90;;;;;;4783825;29;20055;-79
2023/08/08 04:25:03;;;;;;;0.63;0.20;;;14.40;99.90;;;;;;4800160;29;20065;-78
2023/08/08 04:27:31;;;;;;;1.02;0.30;;;14.50;99.90;;;;;;4803937;29;20055;-79
2023/08/08 04:29:58;;;;;;;1.08;0.22;;;14.50;99.90;;;;;;4798126;29;20054;-79
2023/08/08 04:32:25;;;;;;;0.60;0.22;;;14.60;99.90;;;;;;4768819;29;20082;-79
2023/08/08 04:34:52;;;;;;;1.45;0.30;;;14.70;99.90;;;;;;4782341;29;20070;-79
2023/08/08 04:37:20;;;;;;;2.42;0.22;;;15.10;99.90;;;;;;4800539;29;20059;-79
2023/08/08 04:39:47;;;;;;;1.77;0.20;;;14.80;99.90;;;;;;4770174;29;20150;-78
2023/08/08 04:42:14;;;;;;;1.05;0.20;;;13.80;99.90;;;;;;4786149;29;20085;-79
2023/08/08 04:44:41;;;;;;;1.90;0.20;;;14.70;99.90;;;;;;4803251;29;21000;-79
2023/08/08 04:47:08;;;;;;;2.25;0.20;;;14.80;99.90;;;;;;4769788;29;20051;-79
2023/08/08 04:49:36;;;;;;;1.13;0.43;;;14.90;99.90;;;;;;4787652;29;20084;-79
2023/08/08 04:52:03;;;;;;;1.70;0.30;;;14.90;99.90;;;;;;4786373;29;20055;-79
2023/08/08 04:54:30;;;;;;;1.13;0.30;;;14.90;99.90;;;;;;4788413;29;20551;-78
2023/08/08 04:56:59;;;;;;;0.90;0.50;;;14.90;99.90;;;;;;4785735;29;20145;-79
2023/08/08 04:59:26;;;;;;;1.13;0.30;;;14.80;99.90;;;;;;4803361;29;20560;-79
2023/08/08 05:01:53;;;;;;;1.42;0.30;;;15.00;99.90;;;;;;4787419;29;20059;-79
2023/08/08 05:04:20;;;;;;;0.95;0.20;;;15.10;99.90;;;;;;4799110;29;20116;-79
2023/08/08 05:06:48;;;;;;;2.47;0.20;;;15.10;99.90;;;;;;4786252;29;20051;-79
2023/08/08 05:09:15;;;;;;;2.50;0.20;;;15.20;99.90;;;;;;4798270;29;20083;-79
2023/08/08 05:11:43;;;;;;;1.00;0.30;;;15.20;99.90;;;;;;4770346;30;20082;-79
2023/08/08 05:14:10;;;;;;;0.93;0.30;;;15.20;99.90;;;;;;4799059;29;20565;-78
2023/08/08 05:16:37;;;;;;;0.80;0.40;;;15.20;99.90;;;;;;4785339;29;20058;-79
2023/08/08 05:19:05;;;;;;;0.80;0.20;;;15.20;99.90;;;;;;4788915;29;20052;-77
2023/08/08 05:21:32;;;;;;;0.93;0.20;;;15.30;99.90;;;;;;4800072;29;20051;-79
2023/08/08 05:23:59;;;;;;;2.15;0.22;;;15.40;99.90;;;;;;4814400;29;20507;-78
2023/08/08 05:26:27;;;;;;;0.60;0.28;;;15.40;99.90;;;;;;4798883;29;20499;-76
2023/08/08 05:28:54;;;;;;;1.25;0.20;;;15.50;99.90;;;;;;4805871;29;20058;-79
2023/08/08 05:31:21;;;;;;;0.85;0.25;;;16.10;99.90;;;;;;4803562;29;20511;-77
2023/08/08 05:33:49;;;;;;;4.40;0.82;;;15.70;99.90;;;;;;4810723;29;20085;-78
2023/08/08 05:36:16;;;;;;;1.27;0.20;;;15.70;99.90;;;;;;4813619;29;20066;-79
2023/08/08 05:38:43;;;;;;;2.90;0.30;;;15.80;99.90;;;;;;4765858;29;20059;-79
2023/08/08 05:41:13;;;;;;;1.23;0.40;;;15.90;99.90;;;;;;4771912;30;20052;-79
2023/08/08 05:43:43;;;;;;;3.45;0.28;;;16.00;99.90;;;;;;4849455;24;20086;-78
2023/08/08 05:46:14;;;;;;;2.13;0.60;;;16.20;99.90;;;;;;4905703;23;20070;-79
2023/08/08 05:48:41;;;;;;;0.82;0.20;;;16.30;99.90;;;;;;4837408;29;20033;-79
2023/08/08 05:51:08;;;;;;;2.90;0.30;;;16.40;99.90;;;;;;4811139;29;20109;-79
2023/08/08 05:53:38;;;;;;;0.98;0.32;;;16.40;99.90;;;;;;4810748;29;20460;-78
2023/08/08 05:56:05;;;;;;;0.68;0.20;;;16.60;99.90;;;;;;4830741;29;20052;-79
2023/08/08 05:58:33;;;;;;;2.03;0.20;;;16.70;99.20;;;;;;4820123;29;20058;-79
2023/08/08 06:01:00;;;;;;;3.33;0.57;;;16.80;99.10;;;;;;4813133;29;20053;-77
2023/08/08 06:03:27;;;;;;;3.17;0.30;;;16.90;98.90;;;;;;4813416;29;20062;-79
2023/08/08 06:05:56;;;;;;;1.73;0.65;;;17.00;98.70;;;;;;4817860;29;22631;-78
2023/08/08 06:08:23;;;;;;;2.08;0.40;;;18.10;98.10;;;;;;4833547;29;22578;-79
2023/08/08 06:10:50;;;;;;;2.08;0.35;;;17.20;97.70;;;;;;4815955;29;22571;-79
2023/08/08 06:13:18;;;;;;;1.58;0.30;;;17.20;97.20;;;;;;4823961;29;20045;-78
2023/08/08 06:15:45;;;;;;;3.65;0.30;;;17.30;96.50;;;;;;4992779;23;20024;-79
2023/08/08 06:18:12;;;;;;;1.27;0.22;;;17.40;96.70;;;;;;4783716;29;20051;-79
2023/08/08 06:20:40;;;;;;;0.93;0.30;;;17.50;96.20;;;;;;4978670;24;20499;-79
2023/08/08 06:23:07;;;;;;;3.20;0.50;;;17.70;96.10;;;;;;4816002;29;20516;-79
2023/08/08 06:25:35;;;;;;;2.53;0.30;;;17.70;95.00;;;;;;4831482;29;20493;-78
2023/08/08 06:28:06;;;;;;;1.35;0.40;;;17.60;94.40;;;;;;4844969;29;20052;-78
2023/08/08 06:30:42;;;;;;;2.55;0.20;;;17.60;94.30;;;;;;4868010;29;20056;-79
2023/08/08 06:43:53;;;;;;;2.85;0.73;;;17.70;94.50;;;;;;5023340;28;21229;-78
2023/08/08 06:46:21;;;;;;;1.15;0.40;;;18.10;92.80;;;;;;4977661;23;20051;-77
2023/08/08 06:48:58;;;;;;;2.90;0.35;;;18.20;93.10;;;;;;4969004;28;20106;-78
2023/08/08 06:51:26;;;;;;;2.30;0.35;;;18.30;92.70;;;;;;4942623;28;20440;-78
2023/08/08 06:53:54;;;;;;;1.48;0.38;;;18.30;92.00;;;;;;5227734;23;20042;-79
2023/08/08 06:56:21;;;;;;;2.80;0.40;;;18.60;92.60;;;;;;4927697;28;20122;-78
2023/08/08 06:58:49;;;;;;;1.38;0.20;;;18.50;91.50;;;;;;4911082;28;20043;-79
2023/08/08 07:01:17;;;;;;;2.25;0.38;;;18.50;91.30;;;;;;4915989;28;20055;-77
2023/08/08 07:03:44;;;;;;;2.85;0.40;;;18.70;91.50;;;;;;4935642;28;20061;-79
2023/08/08 07:06:13;;;;;;;2.55;0.40;;;18.50;90.90;;;;;;4940399;28;20050;-78
2023/08/08 07:08:40;;;;;;;3.60;0.50;;;18.60;90.80;;;;;;5004709;23;20057;-79
2023/08/08 07:11:13;;;;;;;1.30;0.40;;;18.80;91.10;;;;;;4941618;28;20059;-79
2023/08/08 07:13:41;;;;;;;2.05;0.43;;;18.90;90.80;;;;;;5169089;23;20413;-79
2023/08/08 07:16:11;;;;;;;0.73;0.30;;;19.20;90.70;;;;;;4922715;28;20088;-79
2023/08/08 07:18:38;;;;;;;2.33;0.50;;;19.30;90.20;;;;;;4982129;28;20110;-76
2023/08/08 07:21:08;;;;;;;2.22;0.40;;;19.40;89.30;;;;;;4968661;28;20049;-78
2023/08/08 07:23:38;;;;;;;5.07;0.30;;;19.30;87.90;;;;;;4955343;28;20057;-78
2023/08/08 07:26:05;;;;;;;2.42;0.43;;;20.10;89.30;;;;;;4973569;28;20413;-78
2023/08/08 07:28:35;;;;;;;1.85;0.30;;;19.30;86.80;;;;;;4959050;28;20042;-80
2023/08/08 07:31:04;;;;;;;2.72;0.40;;;19.40;87.70;;;;;;5350501;23;20050;-79
2023/08/08 07:33:31;;;;;;;2.22;0.50;;;19.50;87.80;;;;;;4991140;28;20187;-78
2023/08/08 07:36:00;;;;;;;1.63;0.47;;;19.50;87.20;;;;;;4990909;28;20095;-79
2023/08/08 07:38:28;;;;;;;1.63;0.40;;;19.60;86.90;;;;;;5259860;23;20054;-78
2023/08/08 07:44:58;;;;;;;1.80;0.45;;;19.60;86.20;;;;;;4813638;29;20297;-78
2023/08/08 07:47:29;;;;;;;3.30;1.25;;;19.40;84.10;;;;;;4808252;29;20055;-80
2023/08/08 07:50:08;;;;;;;3.45;0.60;;;19.70;85.60;;;;;;4759218;29;20112;-81
2023/08/08 07:52:56;;;;;;;3.35;0.50;;;19.60;84.60;;;;;;4778384;29;20649;-81
2023/08/08 07:55:24;;;;;;;1.08;0.40;;;19.90;85.90;;;;;;4767124;29;20063;-79
2023/08/08 07:58:25;;;;;;;2.40;0.40;;;19.80;83.90;;;;;;4835580;24;20060;-77
2023/08/08 08:01:04;;;;;;;1.90;0.30;;;19.80;82.90;;;;;;3502418;24;20593;-78
2023/08/08 08:03:41;;;;;;;2.00;0.40;;;19.90;83.30;;;;;;4946700;24;21259;-79
2023/08/08 08:06:31;;;;;;;0.77;0.40;;;19.90;83.40;;;;;;5118316;24;20062;-79
2023/08/08 08:09:04;;;;;;;1.80;0.35;;;20.20;84.30;;;;;;4870319;24;20065;-79
2023/08/08 08:11:32;;;;;;;2.22;0.40;;;20.20;82.80;;;;;;4839678;29;20062;-79
2023/08/08 08:14:04;;;;;;;2.92;0.30;;;20.20;81.70;;;;;;4881180;24;20054;-80
2023/08/08 08:16:40;;;;;;;2.80;0.30;;;20.10;81.30;;;;;;4865915;24;20030;-79
2023/08/08 08:19:39;;;;;;;1.75;0.30;;;20.10;81.70;;;;;;5398679;24;20033;31
2023/08/08 08:25:26;;;;;;;2.15;0.40;;;20.20;80.30;;;;;;5178275;24;22437;-78
2023/08/08 08:27:55;;;;;;;2.55;0.40;;;20.30;79.90;;;;;;5068420;24;20029;-80
2023/08/08 08:30:26;;;;;;;3.55;0.38;;;20.30;79.40;;;;;;4818904;29;20081;-78
2023/08/08 08:32:56;;;;;;;3.58;0.32;;;20.20;79.10;;;;;;4845321;29;20056;-78
2023/08/08 08:42:24;;;;;;;2.83;0.20;;;20.30;78.30;;;;;;4830411;24;20039;-79
2023/08/08 08:45:01;;;;;;;1.70;0.30;;;20.20;78.10;;;;;;4921320;24;20052;-79
2023/08/08 08:53:46;;;;;;;1.02;0.40;;;20.70;78.10;;;;;;4946345;24;20188;-78
2023/08/08 08:56:16;;;;;;;1.73;0.40;;;20.60;78.30;;;;;;4755459;29;20492;-78
2023/08/08 08:58:44;;;;;;;1.73;0.30;;;20.70;79.20;;;;;;4943059;24;20044;-78
2023/08/08 09:01:19;;;;;;;1.48;0.28;;;20.80;78.60;;;;;;4756882;29;20100;-79
2023/08/08 09:03:50;;;;;;;1.77;0.30;;;20.70;78.80;;;;;;4765082;30;20036;-79
2023/08/08 09:06:49;;;;;;;1.70;0.45;;;20.70;79.10;;;;;;5031818;24;20054;31
2023/08/08 09:09:22;;;;;;;2.00;0.45;;;20.70;79.20;;;;;;4876253;24;20050;-79
2023/08/08 09:14:46;;;;;;;0.98;0.35;;;20.40;80.20;;;;;;4989793;24;20914;31
2023/08/08 09:17:15;;;;;;;1.48;0.35;;;20.90;81.60;;;;;;4751116;29;20100;-80
2023/08/08 09:19:46;;;;;;;1.70;0.40;;;20.90;79.00;;;;;;4751352;30;20059;-79
2023/08/08 09:22:17;;;;;;;2.45;0.30;;;21.00;79.20;;;;;;4758017;29;20059;-79
2023/08/08 09:24:49;;;;;;;1.95;0.22;;;20.90;78.40;;;;;;4725594;29;22731;-80
2023/08/08 09:27:17;;;;;;;1.50;0.40;;;20.70;78.20;;;;;;4715750;30;20063;-80
2023/08/08 09:29:47;;;;;;;1.67;0.20;;;20.80;79.00;;;;;;4738167;30;20087;-78
2023/08/08 09:32:15;;;;;;;3.33;0.30;;;20.90;77.40;;;;;;4722087;30;20048;-79
2023/08/08 09:34:43;;;;;;;2.53;0.28;;;20.70;76.20;;;;;;4722923;30;20075;-79
2023/08/08 09:37:10;;;;;;;1.45;0.40;;;20.80;78.80;;;;;;4921256;24;20036;-80
2023/08/08 09:39:38;;;;;;;2.53;0.30;;;20.90;78.80;;;;;;4750156;30;20051;-79
2023/08/08 09:42:08;;;;;;;2.72;0.73;;;21.00;78.30;;;;;;4758973;29;20149;-79
2023/08/08 09:44:39;;;;;;;2.13;0.28;;;21.10;79.20;;;;;;4752387;30;20063;-80
2023/08/08 09:47:12;;;;;;;2.58;0.38;;;21.10;76.80;;;;;;4842677;24;20050;-79
2023/08/08 09:49:40;;;;;;;1.95;0.22;;;21.20;76.10;;;;;;4763788;29;20404;-79
2023/08/08 09:52:08;;;;;;;2.70;0.20;;;21.10;77.00;;;;;;4752720;29;20048;-79
2023/08/08 09:54:38;;;;;;;1.55;0.20;;;21.10;77.00;;;;;;4771553;29;20513;-79
2023/08/08 09:57:08;;;;;;;1.25;0.35;;;21.00;77.00;;;;;;4768758;29;20150;-79
2023/08/08 09:59:37;;;;;;;1.38;0.30;;;21.10;76.50;;;;;;4785000;29;20066;-77
2023/08/08 10:02:06;;;;;;;2.30;0.20;;;21.10;74.70;;;;;;4793817;29;20059;-79
2023/08/08 10:04:34;;;;;;;2.63;0.40;;;21.20;73.70;;;;;;4759283;29;20067;-78
2023/08/08 10:07:06;;;;;;;4.40;0.47;;;21.30;73.50;;;;;;4768704;29;20055;-79
2023/08/08 10:09:34;;;;;;;1.95;0.20;;;21.10;73.60;;;;;;4776407;29;20150;-79
2023/08/08 10:12:01;;;;;;;1.58;0.38;;;21.10;73.30;;;;;;4781121;29;22256;-79
2023/08/08 10:14:49;;;;;;;1.40;0.20;;;21.00;72.60;;;;;;4776213;29;20066;-79
2023/08/08 10:17:18;;;;;;;0.93;0.20;;;20.90;75.00;;;;;;4777734;29;22551;-79
2023/08/08 10:19:54;;;;;;;1.17;0.40;;;20.80;74.10;;;;;;4782628;29;20625;-79
2023/08/08 10:22:24;;;;;;;1.95;0.20;;;21.00;74.00;;;;;;4773483;29;20109;-79
2023/08/08 10:24:53;;;;;;;2.13;0.30;;;21.10;74.40;;;;;;4777839;29;20058;-78
2023/08/08 10:27:33;;;;;;;2.08;0.30;;;21.00;73.10;;;;;;4758262;29;20062;-79
2023/08/08 10:30:10;;;;;;;1.38;0.25;;;21.00;73.50;;;;;;4783546;29;20145;-79
2023/08/08 10:32:46;;;;;;;2.50;0.20;;;21.10;73.60;;;;;;4773720;29;20050;-77
2023/08/08 10:35:24;;;;;;;1.85;0.30;;;21.00;71.50;;;;;;4857690;24;20066;31
2023/08/08 10:37:54;;;;;;;2.35;0.38;;;21.10;72.20;;;;;;4942025;24;20063;-79
2023/08/08 10:40:22;;;;;;;2.00;0.25;;;21.30;75.10;;;;;;4766364;29;20056;-79
2023/08/08 10:42:51;;;;;;;0.98;0.30;;;21.40;74.80;;;;;;4764783;29;20027;-79
2023/08/08 10:45:18;;;;;;;1.67;0.60;;;21.20;73.00;;;;;;4725869;30;20071;-76
2023/08/08 10:47:46;;;;;;;1.60;0.30;;;21.30;75.30;;;;;;4756073;29;20056;-78
2023/08/08 10:50:22;;;;;;;3.95;0.52;;;21.20;73.70;;;;;;4749202;30;20111;-79
2023/08/08 10:52:52;;;;;;;1.23;0.22;;;21.30;73.80;;;;;;4724200;30;20588;-79
2023/08/08 10:55:27;;;;;;;2.88;0.50;;;21.10;74.20;;;;;;4765658;29;20526;-78
2023/08/08 10:58:09;;;;;;;1.20;0.20;;;21.10;74.70;;;;;;4767907;29;20042;-79
2023/08/08 11:00:39;;;;;;;4.32;0.30;;;21.10;73.40;;;;;;4764702;29;20417;-79
2023/08/08 11:03:10;;;;;;;1.15;0.30;;;21.10;74.60;;;;;;4757500;29;20059;-79
2023/08/08 11:05:38;;;;;;;1.73;0.40;;;21.40;77.10;;;;;;4744407;29;20051;-79
2023/08/08 11:08:07;;;;;;;1.63;0.30;;;21.30;75.10;;;;;;4775279;29;20055;-79
2023/08/08 11:10:41;;;;;;;1.58;0.30;;;21.40;77.40;;;;;;4743649;29;20154;-79
2023/08/08 11:13:08;;;;;;;1.63;0.30;;;21.50;76.80;;;;;;4755273;29;20582;-79
2023/08/08 11:15:48;;;;;;;3.08;1.20;;;22.20;77.50;;;;;;4772092;29;20155;-79
2023/08/08 11:18:15;;;;;;;2.15;0.30;;;21.50;75.20;;;;;;4772130;29;20055;-77
2023/08/08 11:20:43;;;;;;;2.13;0.30;;;21.60;75.50;;;;;;4753095;29;20538;-79
2023/08/08 11:23:12;;;;;;;1.10;0.30;;;21.50;75.00;;;;;;4728288;30;20063;-79
2023/08/08 11:25:42;;;;;;;1.55;0.32;;;21.50;74.30;;;;;;4745651;29;20072;-79
2023/08/08 11:28:11;;;;;;;1.63;0.40;;;21.30;72.90;;;;;;4761165;29;20501;-79
2023/08/08 11:30:45;;;;;;;1.42;0.20;;;21.40;74.50;;;;;;4724266;30;20482;-79
2023/08/08 11:33:17;;;;;;;;;;;21.40;73.60;;;;;;4721716;30;20052;-79
2023/08/08 11:35:46;;;;;;;1.55;0.70;;;21.50;73.20;;;;;;4749336;30;19988;-79
2023/08/08 11:38:16;;;;;;;2.58;0.50;;;21.40;73.00;;;;;;4731341;30;20048;-77
2023/08/08 11:40:44;;;;;;;2.08;0.40;;;21.50;73.40;;;;;;4730000;30;20053;-79
2023/08/08 11:43:13;;;;;;;2.88;0.60;;;21.50;74.70;;;;;;4753210;29;20036;-79
2023/08/08 11:45:42;;;;;;;3.20;0.32;;;21.60;74.60;;;;;;4753002;29;20440;-79
2023/08/08 11:48:10;;;;;;;2.33;0.38;;;21.50;73.40;;;;;;4755277;29;20126;-79
2023/08/08 11:50:39;;;;;;;2.38;0.25;;;21.40;69.70;;;;;;4742712;30;20151;-77
2023/08/08 11:53:11;;;;;;;1.63;0.28;;;21.50;70.70;;;;;;4769293;29;20044;-79
2023/08/08 11:55:41;;;;;;;4.03;0.60;;;21.40;69.60;;;;;;4740865;30;20128;-79
2023/08/08 11:58:14;;;;;;;2.38;0.30;;;21.40;71.30;;;;;;4728586;30;20056;-77
2023/08/08 12:00:42;;;;;;;;;;;21.40;70.10;;;;;;4734414;30;20051;-78
2023/08/08 12:03:14;;;;;;;1.25;0.50;;;21.40;68.80;;;;;;4743624;30;19941;-79
2023/08/08 12:05:47;;;;;;;1.15;0.50;;;21.30;68.70;;;;;;4756910;29;20520;-79
2023/08/08 12:08:26;;;;;;;1.55;0.30;;;21.30;70.10;;;;;;4772900;29;20516;-79
2023/08/08 12:10:56;;;;;;;1.25;0.30;;;21.30;70.50;;;;;;4739421;30;20060;-79
2023/08/08 12:13:28;;;;;;;0.93;0.35;;;21.20;68.70;;;;;;4747451;29;22461;-79
2023/08/08 12:15:55;;;;;;;1.73;0.45;;;21.40;69.40;;;;;;4755664;29;20096;-77
2023/08/08 12:18:23;;;;;;;1.38;0.30;;;21.40;66.80;;;;;;4729003;30;20201;-77
2023/08/08 12:20:51;;;;;;;1.48;0.32;;;21.20;68.00;;;;;;4751305;29;20040;-78
2023/08/08 12:23:19;;;;;;;2.00;0.60;;;21.20;67.80;;;;;;4747515;30;20080;-78
2023/08/08 12:25:59;;;;;;;0.65;0.28;;;21.20;67.70;;;;;;4741303;30;20043;-79
2023/08/08 12:28:27;;;;;;;2.13;0.30;;;21.30;67.00;;;;;;4758966;29;20064;-79
2023/08/08 12:30:56;;;;;;;0.73;0.30;;;21.30;67.60;;;;;;5008428;24;20047;-77
2023/08/08 12:33:36;;;;;;;1.58;0.20;;;21.40;69.90;;;;;;4756790;29;20070;-79
2023/08/08 12:36:19;;;;;;;2.05;0.40;;;21.30;68.20;;;;;;4758440;30;20062;-79
2023/08/08 12:38:50;;;;;;;1.55;0.20;;;21.50;69.90;;;;;;4767552;29;20132;-79
2023/08/08 12:41:17;;;;;;;1.33;0.32;;;21.40;68.50;;;;;;4787542;29;20731;-79
2023/08/08 12:43:46;;;;;;;1.60;0.30;;;21.50;70.90;;;;;;4787098;29;20072;-79
2023/08/08 12:46:13;;;;;;;1.52;0.30;;;21.60;72.70;;;;;;4781642;29;20047;-79
2023/08/08 12:48:41;;;;;;;1.95;0.50;;;21.60;72.00;;;;;;4766252;29;20051;-79
2023/08/08 12:51:11;;;;;;;1.70;0.30;;;21.60;71.50;;;;;;4768006;29;20137;-79
2023/08/08 12:53:39;;;;;;;1.85;0.40;;;21.60;71.00;;;;;;4836901;24;20059;-79
2023/08/08 12:56:06;;;;;;;0.63;0.20;;;21.60;69.80;;;;;;4754975;29;20038;-80
2023/08/08 12:58:34;;;;;;;1.05;0.32;;;21.60;71.40;;;;;;4767836;29;20060;-79
2023/08/08 13:01:01;;;;;;;1.42;0.30;;;21.70;72.90;;;;;;4753778;30;22612;-79
2023/08/08 13:03:30;;;;;;;1.55;0.40;;;21.90;73.50;;;;;;4768603;29;20062;-79
2023/08/08 13:05:57;;;;;;;1.17;0.45;;;21.90;71.60;;;;;;4757401;29;20070;-80
2023/08/08 13:08:24;;;;;;;3.08;0.95;;;22.00;72.70;;;;;;4786831;29;20070;-79
2023/08/08 13:11:03;;;;;;;0.73;0.20;;;21.90;70.80;;;;;;4786945;29;20071;-81
2023/08/08 13:13:30;;;;;;;1.40;0.20;;;21.90;71.40;;;;;;4751388;30;20119;-79
2023/08/08 13:15:58;;;;;;;1.42;0.40;;;21.60;73.10;;;;;;4745506;29;20040;-79
2023/08/08 13:18:53;;;;;;;1.42;0.30;;;21.40;72.70;;;;;;4752975;30;20455;-79
2023/08/08 13:25:13;;;;;;;1.05;0.30;;;21.40;69.90;;;;;;5037742;24;20136;-78
2023/08/08 13:30:57;;;;;;;2.17;0.85;;;22.10;71.10;;;;;;4760512;29;20071;-80
2023/08/08 13:33:50;;;;;;;1.52;0.28;;;22.20;70.40;;;;;;4709035;30;20561;-80
2023/08/08 13:36:18;;;;;;;1.02;0.30;;;22.40;68.40;;;;;;4688062;30;20573;-79
2023/08/08 13:38:45;;;;;;;1.10;0.40;;;22.20;67.50;;;;;;4732003;30;20104;-80
2023/08/08 13:41:23;;;;;;;2.63;0.35;;;22.10;67.50;;;;;;4687538;30;20241;-80
2023/08/08 13:43:51;;;;;;;1.27;0.20;;;21.90;69.20;;;;;;4743030;29;20841;-80
2023/08/08 13:46:44;;;;;;;2.00;0.30;;;21.70;68.80;;;;;;4694894;30;20546;-78
2023/08/08 13:49:11;;;;;;;1.45;0.30;;;21.70;68.50;;;;;;4661539;30;20177;-77
2023/08/08 13:51:39;;;;;;;1.50;0.25;;;21.40;68.60;;;;;;4696424;30;20064;-80
2023/08/08 13:54:15;;;;;;;0.90;0.30;;;21.30;68.30;;;;;;4720001;30;20429;-80
2023/08/08 13:56:47;;;;;;;2.42;0.30;;;21.20;69.30;;;;;;4746250;29;20114;-80
2023/08/08 13:59:24;;;;;;;1.57;0.30;;;21.20;68.50;;;;;;4704822;30;21082;-80
2023/08/08 14:01:51;;;;;;;0.88;0.20;;;21.10;68.70;;;;;;4751372;30;20036;-80
2023/08/08 14:04:19;;;;;;;3.70;0.55;;;21.00;70.80;;;;;;4759192;29;20063;-80
2023/08/08 14:10:09;;;;;;;;;;;21.00;70.80;;;;;;748707;24;20368;-79
2023/08/08 14:12:40;;;;;;;0.75;0.20;;;20.80;71.10;;;;;;4737848;29;20028;-80
2023/08/08 14:15:11;;;;;;;1.25;0.22;;;20.50;70.20;;;;;;4845118;24;20040;-79
2023/08/08 14:17:45;;;;;;;0.95;0.20;;;20.50;70.80;;;;;;5069350;24;20052;-79